Aérodrome :
LOGIN :

S'inscrire | Disclaimer

   EN    FR    IT 

 










Légende :    VFR   VFR Marginal   IFR   IFR Intensif   IFR Très Intensif
Visi : 
Plafond : 
>= 8 km
>= 3000ft
5 à 8 km
1000 à 3000 ft
1500m à 5 km
500 à 1000 ft
800 à 1500m
200 à 500 ft
< 800m
< 200 ft
Symboles :   Orages  Brouillard  Fortes neiges  Fortes précipitations  Vent > 20 kt
SIGMETs :   Divers  Orages  Givrage  Turbulence  Onde Orograph.  Cendres Volcan.







- Altitude de l'aérodrome : 1363 ft


ETIC - Grafenwohr Army Air Field

DERNIER METAR :
  • 261659Z AUTO 00000KT 9999 BKN025 OVC031 05/03 A2984 RMK AO2 DZE15 BKN V OVC SLP123 P0000 T00500027 $

METARs EXPIRÉS :
  • 261615Z AUTO 00000KT 9999 SCT014 OVC023 05/03 A2986 RMK AO2 DZE15 CIG 013V023 $
  • 261609Z AUTO 00000KT 9999 -DZ BKN015 OVC023 05/03 A2986 RMK AO2 CIG 013V023 $
  • 261555Z AUTO 00000KT 9999 -DZ FEW015 BKN022 OVC030 05/03 A2986 RMK AO2 DZE48DZB55
  • 261548Z AUTO 00000KT 9999 FEW014 BKN023 OVC030 05/03 A2985 RMK AO2 DZE48 CIG 023V029
  • 261538Z AUTO 00000KT 9999 -DZ SCT015 OVC028 05/03 A2985 RMK AO2 CIG 021V030 OVC V BKN $
  • 261526Z AUTO 00000KT 9999 -DZ SCT013 BKN021 OVC029 05/03 A2985 RMK AO2 CIG 013V021
  • 261505Z AUTO 35003KT 9999 -DZ BKN015 OVC027 05/03 A2985 RMK AO2 CIG 015V027 BKN V SCT
  • 261459Z AUTO 35003KT 9999 -DZ BKN016 OVC027 05/03 A2985 RMK AO2 UPB46E55DZB55 SLP125 P0000 60002 T00510028 53006 $
  • 261446Z AUTO 34004KT 9999 UP BKN016 OVC023 05/03 A2984 RMK AO2 UPB46 CIG 016V023 BKN V SCT $

TAF TAF ETIC
Valide du 26 à 14h jusqu'au 27 à 20h UTC


261404Z 2614/2720 01003KT 9000 -RA SCT012 BKN015 610209 611107 QNH2980INS
BECMG 2616/2617 04006KT 9999 NSW BKN025 610309 611206 QNH2982INS
BECMG 2622/2623 01003KT 6000 BR BKN020 610509 611404 QNH2985INS
BECMG 2705/2706 22003KT 9999 NSW SCT020 BKN050 610509 611404 QNH2988INS TX08/2712Z TN00/2700Z
Pas de NOTAMs connus pour ce terrain.



MET'MAP, la Météo Aéronautique d'un coup d'oeil ! - Copyright ORBIFLY Décembre 2007 - Disclaimer

ORBIFLY MET'MAP TEAM :

Programmation & Développement : Alexandra Zaïnal
Conception & Développement : Baudouin d'Aumeries
Co-Programmation & Développement : Marc-Olivier Méhu
Soutien technique & logistique : Manuel Goepfert

Contact : metmap@orbifly.com




SOURCES & CREDITS :

   NOAA